Time;durP1;ratioP1;P1;durP2;ratioP2;P2;SDS_P1;SDS_P2;PMS_P1;PMS_P2;Temp;Humidity;BMP_temperature;BMP_pressure;BME280_temperature;BME280_humidity;BME280_pressure;Samples;Min_cycle;Max_cycle;Signal;HPM_P1;HPM_P2
2022/08/17 00:00:30;;;;;;;;;8.00;8.00;;;;;25.73;56.37;100659.50;5097399;27;49813;-66
2022/08/17 00:03:27;;;;;;;;;8.00;8.00;;;;;25.82;56.73;100672.56;5093803;27;50631;-66
2022/08/17 00:06:02;;;;;;;;;10.00;8.00;;;;;25.81;56.43;100665.44;5091310;27;49668;-64
2022/08/17 00:08:38;;;;;;;;;9.00;9.00;;;;;25.82;56.49;100664.50;5074442;27;49894;-64
2022/08/17 00:11:07;;;;;;;;;8.50;8.50;;;;;25.80;56.48;100658.31;5093795;27;49714;-69
2022/08/17 00:13:37;;;;;;;;;8.25;8.00;;;;;25.83;56.84;100661.72;5075217;27;51976;-67
2022/08/17 00:16:16;;;;;;;;;10.00;10.00;;;;;25.83;56.30;100645.59;5087291;27;49841;-69
2022/08/17 00:18:42;;;;;;;;;7.75;7.00;;;;;25.84;56.35;100646.47;5088734;27;49880;-68
2022/08/17 00:21:09;;;;;;;;;7.00;6.75;;;;;25.83;56.25;100642.03;5093698;27;49722;-64
2022/08/17 00:23:34;;;;;;;;;8.00;7.50;;;;;25.84;56.80;100641.97;5096055;27;50403;-66
2022/08/17 00:26:00;;;;;;;;;6.25;4.75;;;;;25.84;56.39;100636.59;5093330;27;49802;-67
2022/08/17 00:28:26;;;;;;;;;8.75;8.75;;;;;25.83;56.49;100636.66;5098837;27;49818;-65
2022/08/17 00:30:52;;;;;;;;;8.50;8.50;;;;;25.85;56.62;100634.75;5093040;27;49661;-65
2022/08/17 00:33:25;;;;;;;;;9.50;9.50;;;;;25.82;56.29;100626.84;5093110;27;50536;-65
2022/08/17 00:35:51;;;;;;;;;7.50;6.75;;;;;25.84;56.38;100633.03;5092859;27;49725;-64
2022/08/17 00:38:17;;;;;;;;;5.75;5.75;;;;;25.84;56.90;100633.91;5095883;27;49702;-65
2022/08/17 00:40:46;;;;;;;;;8.00;6.75;;;;;25.80;56.65;100624.22;5098083;27;49952;-65
2022/08/17 00:43:31;;;;;;;;;11.00;10.00;;;;;25.84;56.74;100622.25;5090637;27;49795;-75
2022/08/17 00:45:59;;;;;;;;;8.00;7.75;;;;;25.85;56.72;100629.38;5092905;27;49751;-65
2022/08/17 00:48:24;;;;;;;;;10.00;8.50;;;;;25.80;56.69;100620.66;5095245;27;50062;-68
2022/08/17 00:50:59;;;;;;;;;13.00;9.75;;;;;25.84;56.80;100619.56;5093677;27;49724;-66
2022/08/17 00:53:28;;;;;;;;;11.00;7.00;;;;;25.79;56.48;100619.78;5091726;27;49844;-67
2022/08/17 00:55:53;;;;;;;;;8.00;8.00;;;;;25.85;56.71;100629.38;5077357;27;49747;-64
2022/08/17 00:58:21;;;;;;;;;8.75;8.75;;;;;25.84;56.83;100622.25;5080853;27;50009;-65
2022/08/17 01:00:47;;;;;;;;;8.25;7.75;;;;;25.83;56.76;100623.22;5107316;27;49549;-66
2022/08/17 01:03:18;;;;;;;;;8.00;8.00;;;;;25.84;56.86;100611.50;5109964;27;49981;-65
2022/08/17 01:05:47;;;;;;;;;9.00;8.00;;;;;25.84;56.69;100633.03;5102539;27;49737;-65
2022/08/17 01:08:15;;;;;;;;;11.50;10.25;;;;;25.84;56.74;100633.03;5107679;27;49620;-65
2022/08/17 01:10:46;;;;;;;;;9.00;9.00;;;;;25.75;56.30;100626.22;5110483;27;49644;-65
2022/08/17 01:13:13;;;;;;;;;7.50;7.50;;;;;25.84;56.59;100644.66;5110245;27;49887;-65
2022/08/17 01:15:45;;;;;;;;;11.75;11.50;;;;;25.84;56.54;100641.97;5107847;27;49451;-67
2022/08/17 01:18:12;;;;;;;;;9.75;8.25;;;;;25.84;56.83;100639.28;5110033;27;49389;-65
2022/08/17 01:20:43;;;;;;;;;11.00;11.00;;;;;25.60;56.87;100592.81;5108955;27;49684;-65
2022/08/17 01:23:09;;;;;;;;;8.50;8.50;;;;;25.74;56.71;100610.16;5108845;27;49425;-64
2022/08/17 01:25:35;;;;;;;;;8.00;7.25;;;;;25.84;56.80;100630.34;5109388;27;49690;-66
2022/08/17 01:28:01;;;;;;;;;12.25;8.75;;;;;25.83;56.84;100629.47;5109228;27;49703;-61
2022/08/17 01:30:26;;;;;;;;;9.00;7.00;;;;;25.84;56.54;100633.03;5109979;27;49451;-61
2022/08/17 01:32:52;;;;;;;;;12.00;11.00;;;;;25.83;56.89;100634.84;5090225;27;52095;-67
2022/08/17 01:35:17;;;;;;;;;13.25;13.25;;;;;25.72;57.27;100615.63;5108981;27;49460;-63
2022/08/17 01:37:43;;;;;;;;;14.00;13.50;;;;;25.79;56.87;100621.63;5109780;27;49355;-61
2022/08/17 01:40:21;;;;;;;;;13.50;11.25;;;;;25.80;57.53;100628.72;5109281;27;49634;-65
2022/08/17 01:42:52;;;;;;;;;16.50;16.50;;;;;25.80;57.64;100623.34;5109905;27;49642;-61
2022/08/17 01:45:21;;;;;;;;;15.00;14.00;;;;;25.78;57.90;100630.63;5107004;27;49835;-62
2022/08/17 01:47:48;;;;;;;;;16.25;15.75;;;;;25.76;57.54;100633.34;5109669;27;49441;-61
2022/08/17 01:50:17;;;;;;;;;16.00;15.00;;;;;25.75;58.05;100638.81;5110596;27;49638;-61
2022/08/17 01:52:45;;;;;;;;;16.75;13.00;;;;;25.73;57.97;100641.56;5109762;27;49534;-62
2022/08/17 01:55:15;;;;;;;;;16.25;15.75;;;;;25.71;57.99;100643.44;5110609;27;49584;-62
2022/08/17 01:57:40;;;;;;;;;15.75;13.75;;;;;25.65;58.34;100641.84;5109608;27;49285;-66
2022/08/17 02:00:09;;;;;;;;;12.50;12.50;;;;;25.67;58.17;100641.78;5109507;27;49407;-62
2022/08/17 02:02:34;;;;;;;;;15.25;15.25;;;;;25.65;57.89;100644.53;5109764;27;50155;-67
2022/08/17 02:05:00;;;;;;;;;17.75;17.50;;;;;25.64;58.21;100647.31;5109711;27;49519;-62
2022/08/17 02:07:26;;;;;;;;;16.50;15.00;;;;;25.62;58.39;100643.81;5108471;27;49798;-61
2022/08/17 02:09:51;;;;;;;;;17.00;16.25;;;;;25.60;58.20;100638.50;5109487;27;49407;-62
2022/08/17 02:12:17;;;;;;;;;14.25;13.75;;;;;25.38;58.51;100608.09;5109879;27;49476;-61
2022/08/17 02:14:43;;;;;;;;;17.75;17.00;;;;;25.58;58.42;100651.16;5109458;27;49481;-61
2022/08/17 02:17:08;;;;;;;;;16.50;13.00;;;;;25.56;58.44;100647.63;5110164;27;49289;-60
2022/08/17 02:19:33;;;;;;;;;13.50;13.50;;;;;25.55;58.25;100648.56;5108941;27;49537;-61
2022/08/17 02:21:59;;;;;;;;;14.25;13.00;;;;;25.54;58.59;100637.91;5108155;27;49912;-61
2022/08/17 02:24:33;;;;;;;;;14.50;14.00;;;;;25.53;58.75;100636.16;5109026;27;54231;-61
2022/08/17 02:26:58;;;;;;;;;13.25;13.25;;;;;25.49;58.44;100647.97;5108029;27;49636;-61
2022/08/17 02:29:25;;;;;;;;;18.50;16.00;;;;;25.50;58.74;100655.09;5108226;27;49330;-61
2022/08/17 02:31:51;;;;;;;;;18.25;16.50;;;;;25.49;58.33;100658.72;5109376;27;50156;-62
2022/08/17 02:34:16;;;;;;;;;14.50;14.50;;;;;25.47;58.18;100658.78;5108723;27;49752;-63
2022/08/17 02:36:42;;;;;;;;;14.25;14.25;;;;;25.39;58.68;100647.50;5109730;27;49207;-70
2022/08/17 02:39:10;;;;;;;;;14.25;13.25;;;;;25.45;58.72;100654.41;5107132;27;49538;-63
2022/08/17 02:41:36;;;;;;;;;16.00;15.00;;;;;25.40;58.36;100655.50;5102550;27;50076;-64
2022/08/17 02:44:03;;;;;;;;;16.50;14.75;;;;;25.43;58.42;100662.53;5101633;27;49419;-62
2022/08/17 02:46:30;;;;;;;;;15.50;14.50;;;;;25.41;58.90;100669.81;5107936;27;49620;-72
2022/08/17 02:48:56;;;;;;;;;12.00;12.00;;;;;25.39;58.74;100669.00;5109723;27;49445;-62
2022/08/17 02:51:21;;;;;;;;;14.50;14.50;;;;;25.28;58.76;100653.28;5108633;27;49555;-65
2022/08/17 02:53:47;;;;;;;;;14.75;12.75;;;;;25.38;58.74;100673.50;5108629;27;49321;-61
2022/08/17 02:56:12;;;;;;;;;15.00;14.50;;;;;25.37;58.77;100671.72;5109409;27;49279;-64
2022/08/17 02:58:37;;;;;;;;;15.00;15.00;;;;;25.36;58.84;100675.34;5109519;27;49787;-62
2022/08/17 03:01:06;;;;;;;;;14.25;14.25;;;;;25.33;58.96;100675.50;5106762;27;49877;-62
2022/08/17 03:03:33;;;;;;;;;12.75;12.75;;;;;25.31;59.03;100669.31;5106751;27;49353;-62
2022/08/17 03:05:58;;;;;;;;;17.00;14.50;;;;;25.32;58.46;100664.81;5106704;27;49440;-64
2022/08/17 03:08:24;;;;;;;;;11.50;11.00;;;;;25.31;59.11;100663.06;5108518;27;49646;-62
2022/08/17 03:10:50;;;;;;;;;14.25;13.75;;;;;25.31;58.97;100660.38;5105253;27;49455;-63
2022/08/17 03:13:15;;;;;;;;;15.50;15.50;;;;;25.29;59.21;100646.13;5106653;27;49269;-63
2022/08/17 03:15:44;;;;;;;;;17.75;15.25;;;;;25.28;59.25;100639.88;5106168;27;49431;-63
2022/08/17 03:18:10;;;;;;;;;15.50;13.75;;;;;25.28;59.23;100649.72;5110479;27;49747;-65
2022/08/17 03:20:36;;;;;;;;;13.25;11.50;;;;;25.27;59.05;100637.25;5112293;27;49390;-63
2022/08/17 03:23:02;;;;;;;;;13.50;12.50;;;;;25.26;59.43;100630.13;5109642;27;49467;-63
2022/08/17 03:25:34;;;;;;;;;14.00;13.75;;;;;25.25;59.11;100637.31;5109966;27;49645;-72
2022/08/17 03:27:59;;;;;;;;;16.25;16.25;;;;;25.26;59.08;100635.50;5111284;27;49512;-62
2022/08/17 03:30:26;;;;;;;;;13.75;13.75;;;;;25.25;59.38;100623.00;5108870;27;56296;-62
2022/08/17 03:32:54;;;;;;;;;16.50;15.50;;;;;25.23;59.22;100620.38;5109397;27;49429;-62
2022/08/17 03:35:24;;;;;;;;;15.50;13.50;;;;;25.18;58.89;100616.13;5109791;27;49798;-68
2022/08/17 03:37:50;;;;;;;;;16.00;16.00;;;;;25.23;58.85;100620.38;5109272;27;50141;-65
2022/08/17 03:40:16;;;;;;;;;15.25;13.00;;;;;25.18;58.83;100616.13;5109013;27;50127;-67
2022/08/17 03:42:42;;;;;;;;;13.00;11.50;;;;;25.21;59.20;100627.66;5109082;27;49802;-61
2022/08/17 03:45:13;;;;;;;;;14.50;14.25;;;;;25.20;58.85;100623.22;5110022;27;49321;-62
2022/08/17 03:58:42;;;;;;;;;15.25;15.25;;;;;25.11;59.10;100618.22;5110693;27;49709;-65
2022/08/17 04:01:08;;;;;;;;;15.00;13.25;;;;;25.03;58.96;100613.16;5110352;27;49726;-66
2022/08/17 04:03:34;;;;;;;;;16.00;14.00;;;;;24.96;59.27;100603.56;5108697;27;49305;-61
2022/08/17 04:06:01;;;;;;;;;12.25;12.25;;;;;25.14;59.07;100636.88;5109614;27;49806;-62
2022/08/17 04:08:27;;;;;;;;;13.50;13.25;;;;;25.14;59.39;100638.69;5109387;27;49563;-65
2022/08/17 04:10:54;;;;;;;;;13.75;13.75;;;;;25.13;59.64;100640.53;5109685;27;50296;-61
2022/08/17 04:13:19;;;;;;;;;14.00;14.00;;;;;25.14;58.74;100649.44;5109531;27;49463;-68
2022/08/17 04:15:47;;;;;;;;;14.00;14.00;;;;;25.13;59.47;100655.75;5108017;27;60285;-66
2022/08/17 04:18:13;;;;;;;;;15.75;14.25;;;;;25.13;59.75;100651.25;5108601;27;49589;-65
2022/08/17 04:20:38;;;;;;;;;14.25;13.00;;;;;25.13;59.55;100647.69;5108943;27;49517;-63
2022/08/17 04:23:13;;;;;;;;;14.00;12.50;;;;;25.11;59.90;100659.38;5108770;27;57308;-61
2022/08/17 04:25:43;;;;;;;;;12.00;10.50;;;;;25.09;59.55;100661.28;5109180;27;49340;-61
2022/08/17 04:28:09;;;;;;;;;15.25;15.25;;;;;25.10;59.36;100663.00;5091327;27;49593;-62
2022/08/17 04:30:36;;;;;;;;;14.75;14.00;;;;;25.09;59.80;100655.91;5108038;27;50315;-75
2022/08/17 04:33:13;;;;;;;;;14.00;13.50;;;;;25.08;59.86;100656.81;5104640;27;49556;-73
2022/08/17 04:35:45;;;;;;;;;15.25;15.25;;;;;25.09;59.62;100644.25;5089622;27;49707;-62
2022/08/17 04:38:13;;;;;;;;;15.25;14.00;;;;;25.05;59.14;100646.19;5108818;27;49587;-63
2022/08/17 04:43:25;;;;;;;;;14.75;14.00;;;;;25.06;59.52;100653.31;5108591;27;49660;-62
2022/08/17 04:46:02;;;;;;;;;12.25;12.25;;;;;25.06;59.42;100649.75;5100332;27;49622;-66
2022/08/17 04:48:33;;;;;;;;;19.00;14.00;;;;;25.04;59.62;100639.06;5108219;27;49334;-65
2022/08/17 04:50:59;;;;;;;;;15.50;14.50;;;;;25.04;59.58;100644.44;5105659;27;50407;-62
2022/08/17 04:53:26;;;;;;;;;18.75;15.00;;;;;25.04;59.72;100647.13;5105806;27;50041;-66
2022/08/17 04:55:52;;;;;;;;;18.75;17.00;;;;;25.03;59.54;100653.44;5104884;27;49278;-63
2022/08/17 04:58:18;;;;;;;;;13.75;13.75;;;;;24.87;59.70;100620.06;5104330;27;49636;-62
2022/08/17 05:00:44;;;;;;;;;16.25;15.00;;;;;24.98;59.44;100639.28;5109036;27;49925;-62
2022/08/17 05:03:10;;;;;;;;;19.00;15.00;;;;;25.02;59.90;100632.91;5110780;27;49310;-66
2022/08/17 05:05:38;;;;;;;;;14.00;14.00;;;;;25.01;59.61;100641.88;5110486;27;49451;-61
2022/08/17 05:08:06;;;;;;;;;14.00;13.25;;;;;25.01;59.89;100639.19;5104804;27;49549;-62
2022/08/17 05:10:35;;;;;;;;;13.25;13.25;;;;;24.86;59.57;100606.69;5109287;27;50853;-65
2022/08/17 05:13:07;;;;;;;;;17.75;16.50;;;;;24.99;59.76;100634.78;5102551;27;49794;-61
2022/08/17 05:15:34;;;;;;;;;15.75;15.50;;;;;24.99;60.05;100626.72;5109584;27;49560;-62
2022/08/17 05:18:00;;;;;;;;;13.75;13.75;;;;;24.98;59.73;100627.66;5110890;27;49497;-61
2022/08/17 05:20:26;;;;;;;;;20.25;18.00;;;;;24.92;60.11;100619.88;5110627;27;49525;-63
2022/08/17 05:22:54;;;;;;;;;14.00;13.50;;;;;24.99;59.87;100643.72;5105392;27;49738;-64
2022/08/17 05:25:22;;;;;;;;;14.00;14.00;;;;;25.00;59.49;100647.31;5108049;27;49760;-63
2022/08/17 05:27:47;;;;;;;;;19.75;17.75;;;;;24.96;59.80;100640.28;5110462;27;49420;-64
2022/08/17 05:30:14;;;;;;;;;19.75;18.75;;;;;24.92;60.00;100636.00;5103341;27;50189;-64
2022/08/17 05:33:00;;;;;;;;;22.75;21.00;;;;;24.83;59.83;100629.19;5111023;27;49431;-63
2022/08/17 05:35:28;;;;;;;;;28.25;23.75;;;;;24.78;60.08;100633.84;5110735;27;49463;-66
2022/08/17 05:37:54;;;;;;;;;19.75;18.00;;;;;24.65;60.41;100625.41;5110018;27;49386;-69
2022/08/17 05:40:20;;;;;;;;;19.50;17.50;;;;;24.64;60.67;100641.59;5110038;27;50295;-67
2022/08/17 05:42:47;;;;;;;;;23.75;17.50;;;;;24.59;61.09;100640.88;5109838;27;49361;-74
2022/08/17 05:45:14;;;;;;;;;21.75;19.75;;;;;24.55;61.08;100640.13;5108988;27;49444;-71
2022/08/17 05:47:42;;;;;;;;;19.00;18.50;;;;;24.46;61.56;100637.81;5110849;27;49671;-67
2022/08/17 05:50:09;;;;;;;;;22.25;21.25;;;;;24.43;61.73;100641.50;5109057;27;49444;-64
2022/08/17 05:52:57;;;;;;;;;23.50;19.00;;;;;24.41;61.81;100648.69;5110066;27;49489;-65
2022/08/17 05:55:40;;;;;;;;;17.75;16.50;;;;;24.38;62.36;100645.25;5108301;27;49563;-66
2022/08/17 05:58:20;;;;;;;;;16.50;15.50;;;;;24.34;62.45;100633.78;5106230;27;49721;-62
2022/08/17 06:01:07;;;;;;;;;21.25;18.50;;;;;24.31;62.21;100631.19;5101754;27;50409;-61
2022/08/17 06:03:46;;;;;;;;;16.25;15.50;;;;;24.30;61.95;100623.19;5107439;27;49394;-61
2022/08/17 06:06:31;;;;;;;;;20.25;19.25;;;;;24.17;62.16;100604.88;5108076;27;49556;-67
2022/08/17 06:09:25;;;;;;;;;26.00;24.25;;;;;23.95;63.81;100595.91;5105400;27;49310;-72
2022/08/17 06:11:53;;;;;;;;;28.25;25.50;;;;;23.63;65.04;100613.13;5101254;27;49389;-75
2022/08/17 06:15:02;;;;;;;;;31.25;28.25;;;;;23.24;67.41;100609.97;5079254;27;50260;-74
2022/08/17 06:17:28;;;;;;;;;32.50;29.25;;;;;22.45;70.49;100576.81;5099396;27;49502;-81
2022/08/17 06:20:04;;;;;;;;;33.00;30.25;;;;;22.35;72.18;100609.25;5102680;27;49828;-81
2022/08/17 06:22:34;;;;;;;;;39.50;31.50;;;;;21.96;73.27;100596.09;5098897;27;49836;-80
2022/08/17 06:25:30;;;;;;;;;33.50;30.25;;;;;21.98;73.87;100626.31;5099815;27;49722;-83
2022/08/17 06:28:03;;;;;;;;;26.75;25.50;;;;;21.85;74.34;100608.88;5100758;27;49517;-80
2022/08/17 06:30:36;;;;;;;;;34.50;30.25;;;;;21.87;74.16;100620.41;5099708;27;49421;-77
2022/08/17 06:33:09;;;;;;;;;31.25;30.25;;;;;21.85;74.70;100632.94;5101583;27;49862;-85
2022/08/17 06:36:01;;;;;;;;;31.00;28.00;;;;;21.92;74.91;100671.94;5100878;27;49604;-78
2022/08/17 06:38:46;;;;;;;;;36.50;31.00;;;;;21.93;75.14;100661.19;5083345;27;50463;-77
2022/08/17 06:41:42;;;;;;;;;33.50;30.50;;;;;21.75;75.67;100632.31;5109380;27;49272;-75
2022/08/17 06:44:26;;;;;;;;;32.75;30.00;;;;;21.99;75.74;100677.06;5090097;27;51035;-77
2022/08/17 06:46:58;;;;;;;;;31.50;28.50;;;;;21.80;75.67;100650.88;5109204;27;49493;-81
2022/08/17 06:49:31;;;;;;;;;29.25;26.25;;;;;21.88;73.93;100656.88;5109328;27;49648;-80
2022/08/17 06:52:16;;;;;;;;;27.75;26.00;;;;;22.15;72.60;100687.38;5106894;27;49479;-79
2022/08/17 06:54:54;;;;;;;;;24.25;23.00;;;;;22.17;72.60;100688.19;5108855;27;50436;-82
2022/08/17 06:57:27;;;;;;;;;24.50;22.25;;;;;22.23;72.31;100688.03;5104288;27;49408;-77
2022/08/17 06:59:58;;;;;;;;;26.25;25.00;;;;;22.16;71.42;100681.97;5108564;27;49587;-73
2022/08/17 07:03:17;;;;;;;;;28.00;26.00;;;;;22.31;71.67;100693.16;5109042;27;49616;-84
2022/08/17 07:05:55;;;;;;;;;26.25;24.25;;;;;22.21;73.02;100679.19;5070211;27;50595;-73
2022/08/17 07:08:41;;;;;;;;;21.25;19.25;;;;;22.26;72.81;100669.22;5092627;27;49731;-72
2022/08/17 07:11:24;;;;;;;;;20.00;19.50;;;;;22.47;72.45;100689.09;5107337;27;49816;-74
2022/08/17 07:14:06;;;;;;;;;19.50;18.75;;;;;22.53;72.23;100697.84;5107263;27;49395;-72
2022/08/17 07:16:39;;;;;;;;;28.50;28.00;;;;;22.53;71.95;100694.28;5106332;27;50049;-72
2022/08/17 07:19:06;;;;;;;;;26.00;25.25;;;;;22.50;73.16;100700.63;5108218;27;49578;-73
2022/08/17 07:21:53;;;;;;;;;25.50;23.00;;;;;22.57;72.13;100698.63;5108710;27;49444;-72
2022/08/17 07:24:46;;;;;;;;;21.50;20.00;;;;;22.61;71.48;100716.34;5108873;27;49489;-73
2022/08/17 07:27:20;;;;;;;;;27.25;22.25;;;;;22.63;71.52;100730.56;5106159;27;50476;-73
2022/08/17 07:29:50;;;;;;;;;20.50;19.25;;;;;22.57;69.94;100728.91;5107550;27;49199;-73
2022/08/17 07:32:21;;;;;;;;;26.75;22.25;;;;;22.52;70.28;100743.38;5108624;27;49403;-71
2022/08/17 07:35:20;;;;;;;;;24.75;21.25;;;;;22.47;69.85;100745.28;5107839;27;49097;-74
2022/08/17 07:38:07;;;;;;;;;23.00;23.00;;;;;22.46;70.44;100756.91;5101811;27;49597;-73
2022/08/17 07:40:39;;;;;;;;;22.00;20.00;;;;;22.35;70.47;100725.13;5108181;27;49317;-74
2022/08/17 07:43:25;;;;;;;;;17.75;17.75;;;;;22.52;70.43;100760.28;5107642;27;49682;-72
2022/08/17 07:48:47;;;;;;;;;21.00;20.00;;;;;22.55;69.99;100762.00;5107434;27;49350;-74
2022/08/17 07:51:25;;;;;;;;;19.75;15.50;;;;;22.48;69.96;100750.59;5107059;27;49510;-72
2022/08/17 07:53:53;;;;;;;;;18.75;18.00;;;;;22.53;69.72;100753.16;5106124;27;50579;-80
2022/08/17 07:56:35;;;;;;;;;21.25;20.50;;;;;22.49;69.70;100754.16;5107655;27;49306;-81
2022/08/17 07:59:18;;;;;;;;;18.50;18.00;;;;;22.65;70.32;100776.88;5102033;27;50146;-73
2022/08/17 08:02:06;;;;;;;;;28.25;26.25;;;;;22.59;69.93;100765.47;5106970;27;49555;-75
2022/08/17 08:04:41;;;;;;;;;20.25;19.75;;;;;22.34;69.92;100726.03;5087332;27;49705;-74
2022/08/17 08:07:13;;;;;;;;;18.50;18.25;;;;;22.36;69.42;100737.56;5106271;27;49604;-76
2022/08/17 08:09:38;;;;;;;;;19.50;18.75;;;;;22.62;69.97;100774.28;5102200;27;49555;-78
2022/08/17 08:12:28;;;;;;;;;17.25;17.25;;;;;22.45;69.99;100749.81;5109660;27;49364;-76
2022/08/17 08:15:14;;;;;;;;;21.25;17.00;;;;;22.65;69.49;100782.22;5108874;27;49511;-83
2022/08/17 08:17:56;;;;;;;;;19.00;17.25;;;;;22.74;69.77;100802.47;5109692;27;49258;-74
2022/08/17 08:20:39;;;;;;;;;19.00;19.00;;;;;22.73;69.57;100801.59;5109550;27;51561;-81
2022/08/17 08:23:17;;;;;;;;;22.75;19.00;;;;;22.70;69.30;100811.53;5105624;27;49534;-76
2022/08/17 08:26:01;;;;;;;;;22.00;19.00;;;;;22.67;69.56;100809.81;5102369;27;49523;-81
2022/08/17 08:29:08;;;;;;;;;17.25;17.25;;;;;22.44;69.28;100767.66;5107382;27;49551;-79
2022/08/17 08:31:43;;;;;;;;;21.25;20.75;;;;;22.68;68.70;100814.25;5090421;27;51946;-85
2022/08/17 08:34:28;;;;;;;;;20.00;20.00;;;;;22.26;69.73;100763.69;5108907;27;49563;-80
2022/08/17 08:37:18;;;;;;;;;19.75;18.50;;;;;22.51;70.51;100811.16;5108755;27;49953;-76
2022/08/17 08:40:21;;;;;;;;;20.75;17.00;;;;;22.52;70.19;100812.91;5108196;27;49609;-75
2022/08/17 08:43:17;;;;;;;;;19.25;17.75;;;;;22.47;69.92;100801.47;5108040;27;50825;-76
2022/08/17 08:46:00;;;;;;;;;20.25;20.25;;;;;22.48;70.85;100806.75;5109329;27;49451;-78
2022/08/17 08:48:43;;;;;;;;;20.50;19.50;;;;;22.49;70.65;100805.88;5109692;27;49408;-75
2022/08/17 08:51:20;;;;;;;;;25.75;22.75;;;;;21.70;70.39;100685.84;5109727;27;49482;-77
2022/08/17 08:54:19;;;;;;;;;22.75;21.50;;;;;22.61;70.38;100807.31;5110975;27;49764;-79
2022/08/17 08:56:53;;;;;;;;;25.25;24.00;;;;;22.64;70.98;100812.56;5110946;27;49496;-74
2022/08/17 08:59:55;;;;;;;;;21.25;19.00;;;;;22.11;70.47;100731.16;5108543;27;49544;-76
2022/08/17 09:02:55;;;;;;;;;23.25;23.25;;;;;22.63;69.70;100776.03;5110963;27;49345;-73
2022/08/17 09:05:46;;;;;;;;;21.00;18.75;;;;;22.86;68.84;100810.19;5109795;27;49423;-74
2022/08/17 09:08:15;;;;;;;;;19.75;19.75;;;;;22.77;69.48;100799.72;5110347;27;49526;-78
2022/08/17 09:10:43;;;;;;;;;23.00;21.75;;;;;22.83;69.47;100812.94;5110275;27;49359;-81
2022/08/17 09:13:34;;;;;;;;;23.75;22.75;;;;;22.48;68.89;100780.00;5108132;27;49593;-73
2022/08/17 09:16:07;;;;;;;;;21.75;19.25;;;;;22.87;69.09;100813.75;5109583;27;49798;-76
2022/08/17 09:18:47;;;;;;;;;20.75;19.50;;;;;22.84;69.31;100820.94;5110057;27;49262;-79
2022/08/17 09:21:12;;;;;;;;;25.50;23.75;;;;;23.01;69.68;100817.78;5110019;27;49380;-71
2022/08/17 09:23:50;;;;;;;;;23.50;21.00;;;;;22.53;69.57;100731.75;5109922;27;49635;-75
2022/08/17 09:26:29;;;;;;;;;21.50;20.75;;;;;21.89;69.11;100624.78;5110387;27;49941;-75
2022/08/17 09:29:00;;;;;;;;;21.75;21.25;;;;;22.71;69.00;100776.69;5109433;27;49542;-76
2022/08/17 09:31:37;;;;;;;;;19.00;19.00;;;;;22.84;69.75;100807.56;5109720;27;50198;-73
2022/08/17 09:34:15;;;;;;;;;22.50;18.75;;;;;22.62;69.94;100781.44;5105304;27;49278;-71
2022/08/17 09:37:17;;;;;;;;;24.50;24.50;;;;;22.61;71.34;100801.97;5100215;27;49562;-72
2022/08/17 09:40:08;;;;;;;;;21.50;20.25;;;;;22.53;70.55;100810.19;5087297;27;49875;-75
2022/08/17 09:42:55;;;;;;;;;23.50;22.50;;;;;22.55;70.26;100807.47;5109861;27;49475;-71
2022/08/17 09:45:49;;;;;;;;;23.75;22.50;;;;;22.53;69.90;100802.19;5108968;27;49816;-72
2022/08/17 09:48:32;;;;;;;;;20.25;19.25;;;;;22.50;71.00;100794.25;5108408;27;49652;-70
2022/08/17 09:51:31;;;;;;;;;23.25;21.00;;;;;22.54;70.57;100811.06;5109174;27;49583;-72
2022/08/17 09:53:57;;;;;;;;;25.00;23.75;;;;;22.53;70.10;100814.66;5102611;27;49271;-73
2022/08/17 09:56:53;;;;;;;;;22.50;19.00;;;;;22.54;70.96;100808.41;5110044;27;49187;-72
2022/08/17 09:59:43;;;;;;;;;25.00;23.50;;;;;22.61;71.53;100809.13;5107176;27;49986;-72
2022/08/17 10:02:36;;;;;;;;;22.25;19.75;;;;;22.67;70.93;100814.28;5109291;27;49306;-73
2022/08/17 10:05:10;;;;;;;;;30.00;24.50;;;;;22.71;70.84;100822.19;5108116;27;49629;-67
2022/08/17 10:07:46;;;;;;;;;25.25;25.00;;;;;22.76;71.44;100827.41;5108999;27;49367;-72
2022/08/17 10:10:24;;;;;;;;;33.75;28.50;;;;;22.80;71.63;100832.63;5109522;27;50032;-69
2022/08/17 10:13:16;;;;;;;;;31.00;28.50;;;;;22.85;71.20;100843.22;5107740;27;49271;-71
2022/08/17 10:15:57;;;;;;;;;25.00;23.50;;;;;22.91;70.87;100837.72;5106504;27;49353;-73
2022/08/17 10:18:33;;;;;;;;;24.50;24.50;;;;;22.70;70.36;100800.84;5107117;27;49391;-78
2022/08/17 10:27:04;;;;;;;;;21.50;21.25;;;;;23.11;69.76;100854.06;5091969;27;49554;-73
2022/08/17 10:29:52;;;;;;;;;29.50;25.25;;;;;22.91;68.71;100824.31;5091484;27;49959;-72
2022/08/17 10:32:46;;;;;;;;;23.75;23.50;;;;;22.79;69.70;100801.44;5089290;27;50597;-73
2022/08/17 10:35:45;;;;;;;;;22.50;22.50;;;;;23.25;68.04;100856.31;5088288;27;50023;-73
2022/08/17 10:38:27;;;;;;;;;26.50;25.00;;;;;23.34;68.13;100856.03;5074684;27;49968;-74
2022/08/17 10:41:14;;;;;;;;;29.75;24.00;;;;;23.49;68.22;100848.47;5087089;27;49856;-74
2022/08/17 10:44:02;;;;;;;;;26.50;24.50;;;;;23.64;67.97;100843.56;5083881;27;50012;-73
2022/08/17 10:46:50;;;;;;;;;32.00;30.00;;;;;23.74;66.40;100845.91;5086624;27;49777;-71
2022/08/17 10:49:16;;;;;;;;;30.25;27.75;;;;;23.75;66.51;100842.34;5087950;27;49822;-67
2022/08/17 10:51:44;;;;;;;;;27.25;25.25;;;;;23.92;65.16;100838.16;5088377;27;50012;-65
2022/08/17 10:54:34;;;;;;;;;24.00;23.75;;;;;23.86;65.33;100832.13;5099917;27;50335;-72
2022/08/17 10:57:00;;;;;;;;;28.25;26.00;;;;;23.79;64.97;100833.25;5088124;27;49819;-73
2022/08/17 10:59:34;;;;;;;;;26.50;22.75;;;;;23.84;65.11;100831.31;5095926;27;50199;-72
2022/08/17 11:02:02;;;;;;;;;10.00;9.25;;;;;23.70;63.73;100831.75;5084481;27;49851;-70
2022/08/17 11:04:57;;;;;;;;;24.75;23.00;;;;;23.65;64.77;100837.28;5088862;27;49761;-72
2022/08/17 11:07:45;;;;;;;;;26.00;25.75;;;;;23.79;65.09;100834.13;5077664;27;49872;-68
2022/08/17 11:10:38;;;;;;;;;23.00;22.50;;;;;23.88;64.83;100835.63;5095163;27;49633;-65
2022/08/17 11:13:30;;;;;;;;;26.00;24.25;;;;;23.92;65.53;100840.84;5086216;27;49806;-66
2022/08/17 11:16:15;;;;;;;;;23.25;21.50;;;;;23.99;65.16;100839.72;5090564;27;49644;-69
2022/08/17 11:19:07;;;;;;;;;23.75;23.75;;;;;24.06;64.57;100836.84;5090906;27;49728;-70
2022/08/17 11:22:06;;;;;;;;;22.50;21.75;;;;;24.01;64.18;100831.63;5091156;27;49803;-68
2022/08/17 11:24:34;;;;;;;;;23.50;22.00;;;;;23.97;64.32;100827.28;5092993;27;49636;-66
2022/08/17 11:26:59;;;;;;;;;25.75;22.75;;;;;;;;5090000;27;49852;-66
2022/08/17 11:29:34;;;;;;;;;21.75;21.25;;;;;23.83;63.54;100814.34;5090564;27;49722;-70
2022/08/17 11:32:26;;;;;;;;;25.75;22.50;;;;;23.89;63.63;100808.78;5093727;27;49677;-66
2022/08/17 11:35:28;;;;;;;;;22.50;22.50;;;;;24.08;63.53;100819.75;5097956;27;49388;-66
2022/08/17 11:38:15;;;;;;;;;28.25;26.75;;;;;24.27;63.04;100822.69;5102972;27;49741;-70
2022/08/17 11:41:04;;;;;;;;;31.00;27.00;;;;;24.37;62.27;100829.50;5112418;27;49312;-64
2022/08/17 11:43:54;;;;;;;;;25.75;24.75;;;;;24.67;62.48;100829.34;5103893;27;49498;-70
2022/08/17 11:53:37;;;;;;;;;29.00;26.75;;;;;25.84;59.59;100842.78;5111905;27;49226;-67
2022/08/17 11:56:10;;;;;;;;;21.50;20.50;;;;;26.23;58.56;100834.84;5102805;27;49764;-69
2022/08/17 11:58:40;;;;;;;;;25.25;23.75;;;;;26.44;57.19;100835.75;5101866;27;50164;-70
2022/08/17 12:01:10;;;;;;;;;20.00;18.75;;;;;26.16;56.93;100807.34;5099590;27;49772;-68
2022/08/17 12:03:35;;;;;;;;;31.00;27.25;;;;;26.15;56.61;100829.81;5098333;27;50038;-68
2022/08/17 12:06:31;;;;;;;;;23.25;22.75;;;;;25.91;58.02;100842.47;5099458;27;49723;-68
2022/08/17 12:09:14;;;;;;;;;29.00;29.00;;;;;25.86;58.61;100843.59;5112300;27;49546;-70
2022/08/17 12:11:48;;;;;;;;;25.00;24.75;;;;;25.64;58.26;100830.13;5111940;27;50140;-67
2022/08/17 12:14:21;;;;;;;;;23.75;22.00;;;;;25.68;59.01;100856.84;5099993;27;49737;-69
2022/08/17 12:16:57;;;;;;;;;22.00;22.00;;;;;25.56;58.78;100830.41;5097520;27;49656;-72